首页
METAR-TAF:

METAR-TAF

机场 :

特洛伊, 密歇根州, 美国

纬度: 42-32-35N, 经度: 083-10-40W, 海拔: 222米

当前天气观测

该预报发布于14分钟前的09:15 UTC
静风
温度 -9°C
湿度 85%
气压 1035 hPa
能見度: 16.1公里
天空无云

METAR: KVLL 120915Z AUTO 00000KT 10SM CLR M09/M11 A3057 RMK AO2 T10871114

时间: 04:29 (09:29 UTC)


TAF: 丢失

超过4000个机场的气象观测和天气预报(METAR&TAF报告)。

可查询的气象台以黄色和红色小点在地图上表示。

将鼠标移到小点上方,可查看气象台名称。

然后点击查看天气观测和预报。

如需切换地图:点击带黑十字的绿色按钮放大地图;点击带横线的绿色按钮缩小地图;或者点击绿色箭头查看邻近地区的地图。


METAR-TAF: